Data for 10/22/2017

Time Sea-Level Adjusted Pressure Absolute Pressure Temperature Relative Humidity Dew Point   
(mb) (inHg) (mb) (inHg) (C) (F) (%) (C) (F)
00:05 1017 30.03 846 24.98 4.3 39.8 53 -4.3 24.2
00:10 1017 30.03 846 24.98 4.2 39.5 53 -4.7 23.5
00:15 1017 30.03 846 24.98 4.3 39.8 50 -5.3 22.5
00:20 1017 30.03 846 24.98 4.7 40.5 49 -5.2 22.6
00:25 1017 30.03 846 24.98 4.9 40.7 48 -5.4 22.4
00:30 1017 30.03 846 24.98 5 41 45 -5.8 21.5
00:35 1017 30.03 846 24.98 5.2 41.3 47 -5.2 22.7
00:40 1017 30.03 846 24.98 5.1 41.1 47 -5.2 22.6
00:45 1017 30.03 846 24.98 5.1 41.1 46 -5.5 22
00:50 1017 30.03 846 24.98 5.2 41.4 46 -5.5 22.1
00:55 1017 30.03 846 24.98 5.3 41.6 46 -5.4 22.2
01:00 1017 30.03 846 24.98 5.3 41.5 47 -5.2 22.6
01:05 1017 30.03 846 24.98 5.3 41.5 48 -4.8 23.4
01:10 1017 30.03 846 24.98 5.1 41.2 49 -4.7 23.5
01:15 1017 30.03 846 24.98 4.9 40.9 49 -4.9 23.1
01:20 1017 30.03 846 24.98 5 41 48 -5.2 22.6
01:25 1017 30.03 846 24.98 5 41 49 -4.8 23.3
01:30 1017 30.03 846 24.98 4.7 40.4 51 -4.5 23.8
01:35 1017 30.03 846 24.98 4.6 40.2 49 -5.2 22.6
01:40 1016 30 846 24.98 4.8 40.6 50 -4.9 23.2
01:45 1017 30.03 846 24.98 5 40.9 50 -4.7 23.5
01:50 1017 30.03 846 24.98 5.1 41.3 50 -4.3 24.3
01:55 1016 30 846 24.98 5 41 51 -4.3 24.3
02:00 1016 30 846 24.98 5 41 51 -4.2 24.4
02:05 1016 30 846 24.98 4.8 40.6 53 -4.1 24.6
02:10 1016 30 846 24.98 4.9 40.7 52 -4.2 24.4
02:15 1016 30 845 24.95 5.8 42.4 50 -3.9 25.1
02:20 1016 30 845 24.95 6.3 43.4 47 -4 24.7
02:25 1016 30 845 24.95 6.9 44.5 46 -4 24.9
02:30 1016 30 845 24.95 7.5 45.4 45 -3.7 25.3
02:35 1016 30 846 24.98 7.7 45.9 45 -3.6 25.6
02:40 1016 30 846 24.98 7.8 46.1 45 -3.3 26
02:45 1017 30.03 846 24.98 8.1 46.5 44 -3.4 25.9
02:50 1017 30.03 846 24.98 8.5 47.2 43 -3.4 25.9
02:55 1017 30.03 846 24.98 8.7 47.7 43 -3.2 26.2
03:00 1017 30.03 846 24.98 8.8 47.8 42 -3.3 26.1
03:05 1017 30.03 846 24.98 8.8 47.8 43 -3.2 26.3
03:10 1017 30.03 846 24.98 8.8 47.8 42 -3.3 26.1
03:15 1016 30 846 24.98 8.9 48.1 42 -3.3 26.1
03:20 1016 30 845 24.95 9 48.2 42 -3.1 26.5
03:25 1016 30 845 24.95 9.1 48.3 42 -3.1 26.4
03:30 1016 30 845 24.95 9.3 48.7 41 -3.4 25.9
03:35 1016 30 845 24.95 9.5 49.2 41 -3.2 26.3
03:40 1016 30 845 24.95 9.6 49.2 40 -3.4 25.9
03:45 1016 30 845 24.95 9.6 49.3 41 -2.9 26.8
03:50 1016 30 845 24.95 9.4 48.8 42 -2.8 27
03:55 1016 30 845 24.95 9.2 48.6 43 -2.7 27.1
04:00 1016 30 845 24.95 9.5 49.1 42 -2.7 27.1
04:05 1016 30 845 24.95 9.7 49.4 43 -2.4 27.7
04:10 1016 30 845 24.95 9.5 49.1 43 -2.4 27.7
04:15 1016 30 845 24.95 9.4 48.9 43 -2.4 27.7
04:20 1016 30 845 24.95 9.4 49 43 -2.4 27.6
04:25 1016 30 845 24.95 9.6 49.3 42 -2.7 27.2
04:30 1016 30 845 24.95 9.7 49.5 42 -2.5 27.6
04:35 1016 30 845 24.95 9.8 49.7 39 -3.3 26.1
04:40 1016 30 845 24.95 10.4 50.7 39 -2.9 26.8
04:45 1016 30 845 24.95 10.6 51.1 38 -2.9 26.7
04:50 1016 30 845 24.95 10.9 51.6 38 -2.9 26.8
04:55 1016 30 845 24.95 10.9 51.5 39 -2.6 27.3
05:00 1016 30 845 24.95 10.7 51.3 38 -2.9 26.7
05:05 1016 30 845 24.95 11 51.7 38 -2.8 26.9
05:10 1016 30 845 24.95 10.9 51.6 38 -2.7 27.2
05:15 1016 30 845 24.95 10.9 51.6 38 -2.8 27
05:20 1016 30 845 24.95 10.9 51.6 38 -2.7 27.1
05:25 1016 30 845 24.95 10.9 51.6 39 -2.6 27.3
05:30 1016 30 845 24.95 10.8 51.4 39 -2.7 27.1
05:35 1016 30 845 24.95 10.8 51.5 38 -2.8 26.9
05:40 1016 30 845 24.95 10.9 51.5 38 -2.8 26.9
05:45 1016 30 845 24.95 10.8 51.4 39 -2.7 27.2
05:50 1016 30 845 24.95 10.7 51.2 39 -2.6 27.4
05:55 1016 30 845 24.95 10.7 51.2 39 -2.7 27.1
06:00 1016 30 845 24.95 10.7 51.2 39 -2.6 27.4
06:05 1016 30 845 24.95 10.6 51 39 -2.6 27.2
06:10 1016 30 845 24.95 10.8 51.5 38 -2.7 27.1
06:15 1016 30 845 24.95 10.9 51.5 39 -2.6 27.4
06:20 1016 30 845 24.95 10.7 51.3 39 -2.7 27.1
06:25 1016 30 845 24.95 10.9 51.5 39 -2.6 27.3
06:30 1016 30 845 24.95 10.8 51.4 39 -2.7 27.1
06:35 1016 30 845 24.95 10.8 51.5 38 -2.8 27
06:40 1016 30 845 24.95 10.9 51.5 38 -2.8 27
06:45 1016 30 845 24.95 10.8 51.5 39 -2.5 27.5
06:50 1016 30 845 24.95 10.9 51.6 39 -2.6 27.4
06:55 1016 30 845 24.95 11.1 51.9 38 -2.6 27.3
07:00 1016 30 845 24.95 11.1 51.9 38 -2.6 27.4
07:05 1016 30 845 24.95 11 51.8 38 -2.7 27.2
07:10 1016 30 845 24.95 11.2 52.1 38 -2.5 27.5
07:15 1016 30 845 24.95 11 51.9 38 -2.6 27.4
07:20 1016 30 845 24.95 10.9 51.7 39 -2.5 27.5
07:25 1016 30 845 24.95 10.8 51.5 38 -2.7 27.1
07:30 1016 30 845 24.95 11 51.8 39 -2.5 27.4
07:35 1016 30 845 24.95 11 51.7 37 -3 26.6
07:40 1015 29.97 845 24.95 11.2 52.1 37 -2.9 26.7
07:45 1015 29.97 845 24.95 11.5 52.6 37 -2.8 26.9
07:50 1015 29.97 845 24.95 11.5 52.8 37 -2.7 27.1
07:55 1015 29.97 845 24.95 11.5 52.8 37 -2.8 27
08:00 1015 29.97 845 24.95 11.5 52.7 37 -2.5 27.5
08:05 1015 29.97 845 24.95 11.4 52.4 37 -2.7 27.1
08:10 1015 29.97 845 24.95 11.4 52.5 37 -2.8 27
08:15 1015 29.97 844 24.92 11.6 52.8 36 -2.8 27
08:20 1015 29.97 844 24.92 11.5 52.8 36 -2.9 26.8
08:25 1015 29.97 844 24.92 11.5 52.6 37 -2.7 27.1
08:30 1015 29.97 844 24.92 11.5 52.8 37 -2.6 27.3
08:35 1015 29.97 844 24.92 11.5 52.7 36 -2.9 26.8
08:40 1015 29.97 844 24.92 11.6 53 36 -3 26.6
08:45 1015 29.97 844 24.92 11.7 53.1 37 -2.6 27.3
08:50 1015 29.97 844 24.92 11.5 52.6 37 -2.8 27
08:55 1015 29.97 844 24.92 11.5 52.6 37 -2.9 26.8
09:00 1016 30 845 24.95 11.4 52.5 38 -2.5 27.5
09:05 1016 30 845 24.95 11.3 52.3 38 -2.5 27.6
09:10 1016 30 845 24.95 11.3 52.3 38 -2.5 27.5
09:15 1016 30 845 24.95 11.3 52.3 38 -2.5 27.5
09:20 1016 30 845 24.95 11.4 52.4 38 -2.6 27.3
09:25 1016 30 845 24.95 11.4 52.6 38 -2.4 27.6
09:30 1016 30 845 24.95 11.4 52.6 38 -2.5 27.5
09:35 1016 30 845 24.95 11.5 52.8 37 -2.5 27.5
09:40 1016 30 845 24.95 11.5 52.6 38 -2.3 27.8
09:45 1016 30 845 24.95 11.4 52.6 38 -2.3 27.9
09:50 1016 30 845 24.95 11.4 52.6 38 -2.3 27.9
09:55 1016 30 845 24.95 11.4 52.5 39 -2.2 28.1
10:00 1016 30 845 24.95 11.5 52.7 38 -2.3 27.8
10:05 1016 30 845 24.95 12 53.7 36 -2.4 27.6
10:10 1016 30 845 24.95 12.3 54.1 36 -2.5 27.5
10:15 1016 30 845 24.95 12.3 54.1 36 -2.3 27.8
10:20 1016 30 845 24.95 12.3 54.1 36 -2.4 27.7
10:25 1016 30 845 24.95 12.7 54.8 34 -2.8 27
10:30 1016 30 845 24.95 13 55.5 33 -2.7 27.2
10:35 1016 30 845 24.95 12.9 55.2 34 -2.4 27.6
10:40 1016 30 845 24.95 12.8 55 34 -2.5 27.6
10:45 1016 30 845 24.95 12.8 55.1 34 -2.5 27.4
10:50 1016 30 845 24.95 13 55.4 34 -2.5 27.4
10:55 1016 30 845 24.95 13 55.5 34 -2.3 27.9
11:00 1016 30 845 24.95 13 55.4 34 -2.5 27.4
11:05 1016 30 845 24.95 13.2 55.7 34 -2.4 27.6
11:10 1016 30 845 24.95 13.4 56.1 33 -2.3 27.8
11:15 1016 30 845 24.95 13.6 56.4 33 -2.3 27.9
11:20 1016 30 845 24.95 13.4 56.1 34 -2.2 28
11:25 1016 30 845 24.95 13.5 56.3 33 -2.4 27.8
11:30 1016 30 845 24.95 13.8 56.8 32 -2.6 27.4
11:35 1016 30 845 24.95 13.9 57.1 33 -2.2 28
11:40 1016 30 845 24.95 14.2 57.5 32 -2.3 27.8
11:45 1016 30 845 24.95 14.2 57.6 32 -2.1 28.2
11:50 1016 30 845 24.95 14.1 57.4 32 -2.2 28.1
11:55 1016 30 845 24.95 14 57.3 32 -2.2 28.1
12:00 1016 30 845 24.95 14.1 57.4 32 -2.2 28
12:05 1016 30 845 24.95 14.5 58.1 32 -2 28.4
12:10 1016 30 845 24.95 14.4 57.9 32 -2 28.4
12:15 1016 30 845 24.95 14.4 57.8 32 -2.1 28.3
12:20 1016 30 845 24.95 14.3 57.7 32 -2 28.5
12:25 1016 30 845 24.95 14.3 57.8 32 -1.9 28.5
12:30 1016 30 845 24.95 14.5 58.1 32 -1.8 28.7
12:35 1016 30 845 24.95 14.3 57.8 32 -1.9 28.7
12:40 1016 30 845 24.95 14.7 58.4 31 -2 28.4
12:45 1016 30 845 24.95 14.6 58.2 32 -1.9 28.5
12:50 1016 30 845 24.95 14.7 58.5 32 -1.8 28.8
12:55 1016 30 845 24.95 15.2 59.3 31 -1.9 28.5
13:00 1016 30 845 24.95 15.2 59.4 31 -1.8 28.8
13:05 1016 30 845 24.95 15.1 59.1 32 -1.6 29.2
13:10 1016 30 845 24.95 15 59.1 32 -1.6 29
13:15 1016 30 845 24.95 14.8 58.7 32 -1.6 29.1
13:20 1016 30 845 24.95 14.4 57.9 33 -1.7 29
13:25 1016 30 845 24.95 14.2 57.6 33 -1.6 29.1
13:30 1016 30 845 24.95 14.2 57.5 34 -1.6 29.1
13:35 1016 30 845 24.95 14.2 57.6 34 -1.3 29.6
13:40 1016 30 845 24.95 14.2 57.5 34 -1.4 29.5
13:45 1016 30 845 24.95 14.1 57.4 35 -1 30.2
13:50 1016 30 845 24.95 14.2 57.6 34 -1.2 29.8
13:55 1016 30 845 24.95 14.1 57.4 35 -0.9 30.3
14:00 1016 30 845 24.95 13.8 56.9 37 -0.7 30.8
14:05 1016 30 845 24.95 13.6 56.5 37 -0.9 30.4
14:10 1016 30 845 24.95 13.6 56.5 37 -0.6 30.9
14:15 1016 30 845 24.95 13.7 56.6 36 -0.9 30.4
14:20 1016 30 845 24.95 13.6 56.5 37 -0.8 30.6
14:25 1016 30 846 24.98 13.5 56.3 38 -0.6 30.8
14:30 1016 30 846 24.98 13.3 55.9 38 -0.5 31.1
14:35 1016 30 846 24.98 13.1 55.7 39 -0.5 31.1
14:40 1016 30 846 24.98 13.1 55.7 39 -0.4 31.4
14:45 1016 30 846 24.98 13.2 55.8 39 -0.3 31.5
14:50 1016 30 846 24.98 13.4 56.1 38 -0.6 30.9
14:55 1016 30 845 24.95 13.4 56.2 38 -0.6 30.9
15:00 1016 30 845 24.95 13.4 56.1 39 -0.3 31.4
15:05 1016 30 845 24.95 13.6 56.5 38 -0.3 31.4
15:10 1016 30 845 24.95 13.6 56.6 38 -0.4 31.3
15:15 1016 30 845 24.95 13.5 56.4 37 -0.6 30.9
15:20 1016 30 845 24.95 13.6 56.5 38 -0.5 31.1
15:25 1016 30 845 24.95 13.7 56.6 38 -0.3 31.5
15:30 1016 30 845 24.95 13.7 56.7 37 -0.5 31
15:35 1016 30 846 24.98 13.7 56.6 37 -0.5 31
15:40 1017 30.03 846 24.98 13.7 56.7 38 -0.2 31.6
15:45 1017 30.03 846 24.98 13.6 56.4 39 -0.1 31.8
15:50 1017 30.03 846 24.98 13.3 55.9 40 0.1 32.1
15:55 1018 30.06 847 25.01 12.9 55.3 50 2.8 37
16:00 1018 30.06 847 25.01 11.2 52.1 59 3.5 38.3
16:05 1018 30.06 847 25.01 10.3 50.5 66 4.3 39.7
16:10 1018 30.06 847 25.01 9.6 49.4 64 3.2 37.8
16:15 1018 30.06 847 25.01 9.6 49.4 66 3.6 38.5
16:20 1018 30.06 847 25.01 9.7 49.4 61 2.6 36.7
16:25 1018 30.06 847 25.01 9.9 49.8 58 2 35.7
16:30 1018 30.06 847 25.01 10 50 58 2.2 35.9
16:35 1018 30.06 847 25.01 9.9 49.8 58 2.1 35.8
16:40 1018 30.06 847 25.01 9.7 49.5 61 2.5 36.6
16:45 1018 30.06 848 25.04 9.6 49.3 59 2.1 35.8
16:50 1018 30.06 848 25.04 9.6 49.3 59 1.9 35.5
16:55 1018 30.06 848 25.04 9.5 49.2 59 1.8 35.3
17:00 1019 30.09 848 25.04 9.5 49.2 59 2 35.6
17:05 1019 30.09 848 25.04 9.5 49.1 60 2.1 35.8
17:10 1019 30.09 848 25.04 9.5 49 60 2.1 35.8
17:15 1019 30.09 848 25.04 9.5 49.1 59 1.9 35.4
17:20 1019 30.09 848 25.04 9.6 49.2 58 1.7 35.1
17:25 1019 30.09 848 25.04 9.6 49.4 56 1.3 34.3
17:30 1019 30.09 849 25.07 9.9 49.7 51 0.4 32.7
17:35 1019 30.09 849 25.07 10 49.9 52 0.5 32.9
17:40 1019 30.09 849 25.07 9.9 49.8 52 0.7 33.2
17:45 1019 30.09 849 25.07 9.9 49.7 52 0.4 32.7
17:50 1019 30.09 849 25.07 9.8 49.6 52 0.5 33
17:55 1020 30.12 849 25.07 9.6 49.3 53 0.6 33
18:00 1020 30.12 849 25.07 9.5 49.1 51 0 32
18:05 1020 30.12 849 25.07 9.4 49 50 -0.5 31.2
18:10 1020 30.12 849 25.07 9.4 49 49 -0.6 30.9
18:15 1020 30.12 849 25.07 9.3 48.7 49 -0.8 30.5
18:20 1020 30.12 849 25.07 9.1 48.4 49 -1 30.2
18:25 1020 30.12 850 25.1 9 48.2 49 -1 30.2
18:30 1020 30.12 850 25.1 8.9 48 50 -1 30.3
18:35 1021 30.15 850 25.1 8.8 47.8 51 -0.8 30.5
18:40 1021 30.15 850 25.1 8.6 47.5 50 -1.1 30.1
18:45 1021 30.15 850 25.1 8.5 47.4 51 -1.1 30
18:50 1021 30.15 850 25.1 8.4 47.2 49 -1.7 28.9
18:55 1021 30.15 850 25.1 8.4 47.1 47 -2.3 27.9
19:00 1021 30.15 850 25.1 8.4 47.1 47 -2.3 27.8
19:05 1021 30.15 851 25.13 8.3 47 47 -2.4 27.7
19:10 1022 30.18 851 25.13 8.3 46.9 46 -2.5 27.4
19:15 1022 30.18 851 25.13 8.2 46.7 46 -2.8 26.9
19:20 1022 30.18 851 25.13 8.1 46.5 44 -3.4 26
19:25 1022 30.18 851 25.13 8 46.4 42 -4 24.8
19:30 1022 30.18 852 25.16 8 46.4 41 -4.6 23.7
19:35 1023 30.21 852 25.16 8 46.4 40 -4.7 23.6
19:40 1023 30.21 852 25.16 8 46.3 40 -5 23.1
19:45 1023 30.21 852 25.16 8 46.4 38 -5.3 22.4
19:50 1023 30.21 852 25.16 8 46.5 38 -5.3 22.5
19:55 1023 30.21 852 25.16 8.1 46.5 38 -5.3 22.4
20:00 1023 30.21 853 25.19 8.1 46.5 38 -5.4 22.2
20:05 1024 30.24 853 25.19 8.1 46.5 38 -5.5 22.1
20:10 1024 30.24 853 25.19 8 46.5 38 -5.4 22.2
20:15 1024 30.24 853 25.19 7.9 46.3 39 -5 23
20:20 1024 30.24 853 25.19 7.8 46.1 40 -4.9 23.2
20:25 1024 30.24 853 25.19 7.7 45.8 41 -4.8 23.4
20:30 1024 30.24 853 25.19 7.5 45.4 43 -4.3 24.3
20:35 1024 30.24 853 25.19 7.2 44.9 46 -3.8 25.2
20:40 1024 30.24 853 25.19 7 44.6 46 -3.8 25.1
20:45 1024 30.24 853 25.19 7 44.6 47 -3.6 25.5
20:50 1025 30.27 854 25.22 6.9 44.4 47 -3.6 25.6
20:55 1025 30.27 854 25.22 6.9 44.4 48 -3.4 25.8
21:00 1025 30.27 854 25.22 6.8 44.2 48 -3.3 26
21:05 1024 30.24 854 25.22 6.7 44 47 -3.7 25.3
21:10 1025 30.27 854 25.22 6.6 43.8 45 -4.5 23.9
21:15 1025 30.27 854 25.22 6.6 43.8 43 -5.3 22.5
21:20 1025 30.27 854 25.22 6.5 43.7 41 -5.7 21.7
21:25 1025 30.27 854 25.22 6.5 43.6 41 -5.7 21.7
21:30 1025 30.27 854 25.22 6.3 43.4 42 -5.7 21.7
21:35 1025 30.27 854 25.22 6.3 43.4 42 -5.7 21.8
21:40 1025 30.27 854 25.22 6.3 43.3 43 -5.4 22.3
21:45 1025 30.27 854 25.22 6.3 43.3 44 -4.9 23.1
21:50 1025 30.27 854 25.22 6.3 43.3 46 -4.4 24.1
21:55 1025 30.27 854 25.22 6.2 43.2 48 -4.1 24.7
22:00 1025 30.27 855 25.25 6.2 43.2 48 -4 24.8
22:05 1026 30.3 855 25.25 6.2 43.1 48 -4.1 24.6
22:10 1026 30.3 855 25.25 6.2 43.1 47 -4.4 24.1
22:15 1026 30.3 856 25.28 6.3 43.3 45 -4.8 23.4
22:20 1026 30.3 855 25.25 6.3 43.4 46 -4.5 23.9
22:25 1026 30.3 856 25.28 6.2 43.2 48 -4.1 24.7
22:30 1026 30.3 856 25.28 6.1 43 49 -3.7 25.3
22:35 1026 30.3 855 25.25 6.1 43 47 -4.2 24.4
22:40 1026 30.3 855 25.25 6.3 43.4 46 -4.3 24.2
22:45 1026 30.3 855 25.25 6.4 43.5 46 -4.3 24.3
22:50 1026 30.3 855 25.25 6.3 43.4 46 -4.6 23.8
22:55 1026 30.3 855 25.25 6.4 43.5 43 -5.2 22.7
23:00 1026 30.3 856 25.28 6.5 43.7 42 -5.5 22.1
23:05 1027 30.33 856 25.28 6.5 43.7 41 -5.8 21.5
23:10 1027 30.33 856 25.28 6.5 43.8 41 -5.8 21.6
23:15 1027 30.33 856 25.28 6.5 43.7 43 -5.2 22.6
23:20 1027 30.33 856 25.28 6.4 43.5 44 -5.1 22.9
23:25 1027 30.33 856 25.28 6.3 43.4 44 -5 23.1
23:30 1027 30.33 856 25.28 6.3 43.3 44 -5.1 22.8
23:35 1027 30.33 856 25.28 6.3 43.3 43 -5.3 22.5
23:40 1027 30.33 856 25.28 6.3 43.3 42 -5.6 22
23:45 1027 30.33 856 25.28 6.3 43.4 43 -5.4 22.3
23:50 1027 30.33 856 25.28 6.3 43.3 43 -5.3 22.5
23:55 1027 30.33 856 25.28 6.2 43.1 44 -5.1 22.8
24:00 1027 30.33 856 25.28 6.1 42.9 45 -5 23